sensor_id;sensor_type;location;lat;lon;timestamp;P1;durP1;ratioP1;P2;durP2;ratioP2
64065;SDS011;50318;54.760;9.408;2023-03-01T00:02:12;110.97;;;45.85;;
64065;SDS011;50318;54.760;9.408;2023-03-01T00:04:38;166.35;;;51.95;;
64065;SDS011;50318;54.760;9.408;2023-03-01T00:07:04;120.60;;;47.63;;
64065;SDS011;50318;54.760;9.408;2023-03-01T00:09:30;117.13;;;46.90;;
64065;SDS011;50318;54.760;9.408;2023-03-01T00:11:56;189.75;;;55.08;;
64065;SDS011;50318;54.760;9.408;2023-03-01T00:14:23;228.80;;;59.28;;
64065;SDS011;50318;54.760;9.408;2023-03-01T00:16:49;137.70;;;49.30;;
64065;SDS011;50318;54.760;9.408;2023-03-01T00:19:16;123.05;;;46.85;;
64065;SDS011;50318;54.760;9.408;2023-03-01T00:21:43;142.35;;;47.00;;
64065;SDS011;50318;54.760;9.408;2023-03-01T00:24:10;147.55;;;49.10;;
64065;SDS011;50318;54.760;9.408;2023-03-01T00:26:37;134.13;;;46.13;;
64065;SDS011;50318;54.760;9.408;2023-03-01T00:29:03;136.52;;;45.00;;
64065;SDS011;50318;54.760;9.408;2023-03-01T00:31:31;124.28;;;46.10;;
64065;SDS011;50318;54.760;9.408;2023-03-01T00:33:59;138.07;;;46.58;;
64065;SDS011;50318;54.760;9.408;2023-03-01T00:36:28;168.57;;;50.28;;
64065;SDS011;50318;54.760;9.408;2023-03-01T00:38:56;280.38;;;58.05;;
64065;SDS011;50318;54.760;9.408;2023-03-01T00:41:23;145.07;;;49.47;;
64065;SDS011;50318;54.760;9.408;2023-03-01T00:43:49;175.18;;;49.08;;
64065;SDS011;50318;54.760;9.408;2023-03-01T00:46:17;343.45;;;69.63;;
64065;SDS011;50318;54.760;9.408;2023-03-01T00:48:45;256.98;;;61.88;;
64065;SDS011;50318;54.760;9.408;2023-03-01T00:51:13;334.38;;;67.03;;
64065;SDS011;50318;54.760;9.408;2023-03-01T00:53:44;245.27;;;61.60;;
64065;SDS011;50318;54.760;9.408;2023-03-01T00:56:13;199.07;;;54.83;;
64065;SDS011;50318;54.760;9.408;2023-03-01T00:58:40;168.05;;;55.00;;
64065;SDS011;50318;54.760;9.408;2023-03-01T01:01:08;334.77;;;67.63;;
64065;SDS011;50318;54.760;9.408;2023-03-01T01:03:46;270.20;;;66.32;;
64065;SDS011;50318;54.760;9.408;2023-03-01T01:06:18;299.58;;;69.85;;
64065;SDS011;50318;54.760;9.408;2023-03-01T01:08:47;153.53;;;55.10;;
64065;SDS011;50318;54.760;9.408;2023-03-01T01:11:14;196.80;;;57.90;;
64065;SDS011;50318;54.760;9.408;2023-03-01T01:13:41;233.88;;;58.05;;
64065;SDS011;50318;54.760;9.408;2023-03-01T01:16:09;153.48;;;51.53;;
64065;SDS011;50318;54.760;9.408;2023-03-01T01:18:36;173.57;;;55.22;;
64065;SDS011;50318;54.760;9.408;2023-03-01T01:21:06;131.80;;;43.92;;
64065;SDS011;50318;54.760;9.408;2023-03-01T01:23:35;226.68;;;58.80;;
64065;SDS011;50318;54.760;9.408;2023-03-01T01:26:03;124.20;;;45.63;;
64065;SDS011;50318;54.760;9.408;2023-03-01T01:28:44;148.45;;;46.88;;
64065;SDS011;50318;54.760;9.408;2023-03-01T01:31:10;141.80;;;46.38;;
64065;SDS011;50318;54.760;9.408;2023-03-01T01:33:37;181.98;;;46.47;;
64065;SDS011;50318;54.760;9.408;2023-03-01T01:36:06;360.92;;;70.30;;
64065;SDS011;50318;54.760;9.408;2023-03-01T01:38:33;140.90;;;40.47;;
64065;SDS011;50318;54.760;9.408;2023-03-01T01:41:00;206.10;;;51.72;;
64065;SDS011;50318;54.760;9.408;2023-03-01T01:43:28;126.18;;;46.05;;
64065;SDS011;50318;54.760;9.408;2023-03-01T01:46:10;105.97;;;42.60;;
64065;SDS011;50318;54.760;9.408;2023-03-01T01:49:00;295.45;;;53.90;;
64065;SDS011;50318;54.760;9.408;2023-03-01T01:51:33;235.73;;;51.75;;
64065;SDS011;50318;54.760;9.408;2023-03-01T01:56:31;152.88;;;44.15;;
64065;SDS011;50318;54.760;9.408;2023-03-01T01:58:58;175.57;;;44.55;;
64065;SDS011;50318;54.760;9.408;2023-03-01T02:01:24;115.72;;;40.03;;
64065;SDS011;50318;54.760;9.408;2023-03-01T02:03:51;116.25;;;46.00;;
64065;SDS011;50318;54.760;9.408;2023-03-01T02:06:31;132.63;;;45.40;;
64065;SDS011;50318;54.760;9.408;2023-03-01T02:09:05;102.18;;;41.38;;
64065;SDS011;50318;54.760;9.408;2023-03-01T02:11:34;108.18;;;42.10;;
64065;SDS011;50318;54.760;9.408;2023-03-01T02:14:01;200.20;;;54.05;;
64065;SDS011;50318;54.760;9.408;2023-03-01T02:16:27;126.57;;;49.92;;
64065;SDS011;50318;54.760;9.408;2023-03-01T02:18:54;131.60;;;49.08;;
64065;SDS011;50318;54.760;9.408;2023-03-01T02:24:47;134.88;;;49.40;;
64065;SDS011;50318;54.760;9.408;2023-03-01T02:27:06;133.07;;;44.78;;
64065;SDS011;50318;54.760;9.408;2023-03-01T02:29:33;127.43;;;45.72;;
64065;SDS011;50318;54.760;9.408;2023-03-01T02:32:01;145.02;;;46.50;;
64065;SDS011;50318;54.760;9.408;2023-03-01T02:34:29;216.07;;;59.58;;
64065;SDS011;50318;54.760;9.408;2023-03-01T02:37:00;171.65;;;50.63;;
64065;SDS011;50318;54.760;9.408;2023-03-01T02:39:32;109.23;;;41.37;;
64065;SDS011;50318;54.760;9.408;2023-03-01T02:42:02;127.95;;;42.63;;
64065;SDS011;50318;54.760;9.408;2023-03-01T02:44:30;126.95;;;44.55;;
64065;SDS011;50318;54.760;9.408;2023-03-01T02:46:56;116.75;;;46.25;;
64065;SDS011;50318;54.760;9.408;2023-03-01T02:49:28;193.27;;;53.78;;
64065;SDS011;50318;54.760;9.408;2023-03-01T02:54:33;149.77;;;46.42;;
64065;SDS011;50318;54.760;9.408;2023-03-01T02:57:10;158.15;;;45.15;;
64065;SDS011;50318;54.760;9.408;2023-03-01T02:59:37;346.70;;;61.85;;
64065;SDS011;50318;54.760;9.408;2023-03-01T03:02:07;269.88;;;51.50;;
64065;SDS011;50318;54.760;9.408;2023-03-01T03:04:43;182.52;;;47.13;;
64065;SDS011;50318;54.760;9.408;2023-03-01T03:07:10;207.88;;;50.22;;
64065;SDS011;50318;54.760;9.408;2023-03-01T03:09:36;226.02;;;49.22;;
64065;SDS011;50318;54.760;9.408;2023-03-01T03:12:02;189.68;;;46.72;;
64065;SDS011;50318;54.760;9.408;2023-03-01T03:14:29;120.28;;;41.70;;
64065;SDS011;50318;54.760;9.408;2023-03-01T03:16:56;152.55;;;48.95;;
64065;SDS011;50318;54.760;9.408;2023-03-01T03:19:41;137.52;;;46.83;;
64065;SDS011;50318;54.760;9.408;2023-03-01T03:22:26;196.27;;;50.88;;
64065;SDS011;50318;54.760;9.408;2023-03-01T03:25:13;269.15;;;53.67;;
64065;SDS011;50318;54.760;9.408;2023-03-01T03:27:59;199.98;;;52.08;;
64065;SDS011;50318;54.760;9.408;2023-03-01T03:30:46;114.50;;;40.63;;
64065;SDS011;50318;54.760;9.408;2023-03-01T03:33:33;121.78;;;40.08;;
64065;SDS011;50318;54.760;9.408;2023-03-01T03:35:59;126.28;;;38.95;;
64065;SDS011;50318;54.760;9.408;2023-03-01T03:38:25;174.20;;;44.75;;
64065;SDS011;50318;54.760;9.408;2023-03-01T03:40:54;120.68;;;40.70;;
64065;SDS011;50318;54.760;9.408;2023-03-01T03:43:26;128.55;;;41.40;;
64065;SDS011;50318;54.760;9.408;2023-03-01T03:45:52;107.07;;;38.85;;
64065;SDS011;50318;54.760;9.408;2023-03-01T03:48:18;114.53;;;39.67;;
64065;SDS011;50318;54.760;9.408;2023-03-01T03:50:49;95.82;;;36.20;;
64065;SDS011;50318;54.760;9.408;2023-03-01T03:53:17;78.20;;;34.58;;
64065;SDS011;50318;54.760;9.408;2023-03-01T03:55:45;97.93;;;34.67;;
64065;SDS011;50318;54.760;9.408;2023-03-01T03:58:11;83.53;;;34.70;;
64065;SDS011;50318;54.760;9.408;2023-03-01T04:00:38;110.72;;;37.92;;
64065;SDS011;50318;54.760;9.408;2023-03-01T04:03:07;79.60;;;34.83;;
64065;SDS011;50318;54.760;9.408;2023-03-01T04:05:35;118.32;;;38.20;;
64065;SDS011;50318;54.760;9.408;2023-03-01T04:08:02;91.78;;;36.53;;
64065;SDS011;50318;54.760;9.408;2023-03-01T04:10:30;108.70;;;39.40;;
64065;SDS011;50318;54.760;9.408;2023-03-01T04:12:58;81.68;;;33.55;;
64065;SDS011;50318;54.760;9.408;2023-03-01T04:15:25;115.40;;;39.45;;
64065;SDS011;50318;54.760;9.408;2023-03-01T04:17:53;90.47;;;36.08;;
64065;SDS011;50318;54.760;9.408;2023-03-01T04:20:21;75.43;;;32.30;;
64065;SDS011;50318;54.760;9.408;2023-03-01T04:22:56;85.50;;;33.88;;
64065;SDS011;50318;54.760;9.408;2023-03-01T04:25:22;76.68;;;30.33;;
64065;SDS011;50318;54.760;9.408;2023-03-01T04:27:51;78.07;;;32.95;;
64065;SDS011;50318;54.760;9.408;2023-03-01T04:30:18;80.53;;;32.63;;
64065;SDS011;50318;54.760;9.408;2023-03-01T04:32:44;77.90;;;34.22;;
64065;SDS011;50318;54.760;9.408;2023-03-01T04:35:10;72.30;;;32.03;;
64065;SDS011;50318;54.760;9.408;2023-03-01T04:37:36;78.78;;;34.25;;
64065;SDS011;50318;54.760;9.408;2023-03-01T04:40:03;94.40;;;31.15;;
64065;SDS011;50318;54.760;9.408;2023-03-01T04:42:30;88.95;;;31.67;;
64065;SDS011;50318;54.760;9.408;2023-03-01T04:44:56;89.22;;;33.70;;
64065;SDS011;50318;54.760;9.408;2023-03-01T04:47:22;70.00;;;32.88;;
64065;SDS011;50318;54.760;9.408;2023-03-01T04:49:48;90.68;;;35.03;;
64065;SDS011;50318;54.760;9.408;2023-03-01T04:52:14;79.28;;;34.65;;
64065;SDS011;50318;54.760;9.408;2023-03-01T04:54:44;88.28;;;34.00;;
64065;SDS011;50318;54.760;9.408;2023-03-01T04:57:10;81.65;;;36.67;;
64065;SDS011;50318;54.760;9.408;2023-03-01T04:59:36;140.57;;;40.28;;
64065;SDS011;50318;54.760;9.408;2023-03-01T05:02:02;72.65;;;32.63;;
64065;SDS011;50318;54.760;9.408;2023-03-01T05:04:28;155.35;;;37.03;;
64065;SDS011;50318;54.760;9.408;2023-03-01T05:06:56;138.88;;;31.67;;
64065;SDS011;50318;54.760;9.408;2023-03-01T05:09:22;113.13;;;32.13;;
64065;SDS011;50318;54.760;9.408;2023-03-01T05:11:48;99.72;;;31.90;;
64065;SDS011;50318;54.760;9.408;2023-03-01T05:14:14;125.40;;;34.40;;
64065;SDS011;50318;54.760;9.408;2023-03-01T05:16:41;91.15;;;30.95;;
64065;SDS011;50318;54.760;9.408;2023-03-01T05:19:07;113.72;;;31.15;;
64065;SDS011;50318;54.760;9.408;2023-03-01T05:21:33;109.85;;;30.92;;
64065;SDS011;50318;54.760;9.408;2023-03-01T05:23:59;87.93;;;27.00;;
64065;SDS011;50318;54.760;9.408;2023-03-01T05:26:25;122.57;;;30.85;;
64065;SDS011;50318;54.760;9.408;2023-03-01T05:28:52;97.88;;;30.67;;
64065;SDS011;50318;54.760;9.408;2023-03-01T05:31:18;100.63;;;31.08;;
64065;SDS011;50318;54.760;9.408;2023-03-01T05:33:44;93.47;;;31.13;;
64065;SDS011;50318;54.760;9.408;2023-03-01T05:36:10;88.20;;;33.30;;
64065;SDS011;50318;54.760;9.408;2023-03-01T05:38:36;94.55;;;37.38;;
64065;SDS011;50318;54.760;9.408;2023-03-01T05:41:03;100.85;;;39.17;;
64065;SDS011;50318;54.760;9.408;2023-03-01T05:43:32;103.05;;;34.20;;
64065;SDS011;50318;54.760;9.408;2023-03-01T05:45:58;87.18;;;30.77;;
64065;SDS011;50318;54.760;9.408;2023-03-01T05:48:25;96.68;;;29.70;;
64065;SDS011;50318;54.760;9.408;2023-03-01T05:50:51;69.68;;;29.45;;
64065;SDS011;50318;54.760;9.408;2023-03-01T05:53:19;82.55;;;34.28;;
64065;SDS011;50318;54.760;9.408;2023-03-01T05:55:46;113.55;;;31.95;;
64065;SDS011;50318;54.760;9.408;2023-03-01T05:58:14;101.03;;;31.55;;
64065;SDS011;50318;54.760;9.408;2023-03-01T06:00:44;110.90;;;29.35;;
64065;SDS011;50318;54.760;9.408;2023-03-01T06:03:12;119.95;;;32.38;;
64065;SDS011;50318;54.760;9.408;2023-03-01T06:05:40;87.20;;;30.67;;
64065;SDS011;50318;54.760;9.408;2023-03-01T06:08:07;108.10;;;27.80;;
64065;SDS011;50318;54.760;9.408;2023-03-01T06:10:35;103.47;;;29.58;;
64065;SDS011;50318;54.760;9.408;2023-03-01T06:13:01;126.60;;;28.13;;
64065;SDS011;50318;54.760;9.408;2023-03-01T06:15:27;83.22;;;28.08;;
64065;SDS011;50318;54.760;9.408;2023-03-01T06:17:54;136.13;;;33.65;;
64065;SDS011;50318;54.760;9.408;2023-03-01T06:20:22;90.68;;;27.98;;
64065;SDS011;50318;54.760;9.408;2023-03-01T06:22:52;92.00;;;25.98;;
64065;SDS011;50318;54.760;9.408;2023-03-01T06:25:20;68.20;;;25.00;;
64065;SDS011;50318;54.760;9.408;2023-03-01T06:27:47;66.00;;;22.17;;
64065;SDS011;50318;54.760;9.408;2023-03-01T06:30:15;71.40;;;18.67;;
64065;SDS011;50318;54.760;9.408;2023-03-01T06:32:43;44.25;;;16.60;;
64065;SDS011;50318;54.760;9.408;2023-03-01T06:35:10;58.15;;;17.50;;
64065;SDS011;50318;54.760;9.408;2023-03-01T06:37:38;79.20;;;18.35;;
64065;SDS011;50318;54.760;9.408;2023-03-01T06:40:05;75.97;;;17.60;;
64065;SDS011;50318;54.760;9.408;2023-03-01T06:42:32;55.42;;;17.95;;
64065;SDS011;50318;54.760;9.408;2023-03-01T06:44:58;54.47;;;16.98;;
64065;SDS011;50318;54.760;9.408;2023-03-01T06:47:24;44.65;;;16.33;;
64065;SDS011;50318;54.760;9.408;2023-03-01T06:49:50;71.53;;;16.95;;
64065;SDS011;50318;54.760;9.408;2023-03-01T06:52:16;47.67;;;15.77;;
64065;SDS011;50318;54.760;9.408;2023-03-01T06:54:42;36.45;;;15.20;;
64065;SDS011;50318;54.760;9.408;2023-03-01T06:57:11;50.08;;;15.18;;
64065;SDS011;50318;54.760;9.408;2023-03-01T06:59:37;37.97;;;14.70;;
64065;SDS011;50318;54.760;9.408;2023-03-01T07:02:04;38.92;;;17.20;;
64065;SDS011;50318;54.760;9.408;2023-03-01T07:04:30;35.25;;;16.02;;
64065;SDS011;50318;54.760;9.408;2023-03-01T07:06:56;47.53;;;18.25;;
64065;SDS011;50318;54.760;9.408;2023-03-01T07:09:23;55.17;;;16.85;;
64065;SDS011;50318;54.760;9.408;2023-03-01T07:11:49;49.63;;;16.23;;
64065;SDS011;50318;54.760;9.408;2023-03-01T07:14:16;58.03;;;21.27;;
64065;SDS011;50318;54.760;9.408;2023-03-01T07:16:42;51.20;;;13.68;;
64065;SDS011;50318;54.760;9.408;2023-03-01T07:19:08;42.58;;;12.85;;
64065;SDS011;50318;54.760;9.408;2023-03-01T07:21:34;55.63;;;18.77;;
64065;SDS011;50318;54.760;9.408;2023-03-01T07:24:01;44.40;;;19.52;;
64065;SDS011;50318;54.760;9.408;2023-03-01T07:26:27;34.00;;;13.90;;
64065;SDS011;50318;54.760;9.408;2023-03-01T07:28:53;44.10;;;13.82;;
64065;SDS011;50318;54.760;9.408;2023-03-01T07:31:19;49.10;;;15.80;;
64065;SDS011;50318;54.760;9.408;2023-03-01T07:33:45;53.35;;;15.05;;
64065;SDS011;50318;54.760;9.408;2023-03-01T07:36:12;38.15;;;10.82;;
64065;SDS011;50318;54.760;9.408;2023-03-01T07:38:38;37.00;;;12.02;;
64065;SDS011;50318;54.760;9.408;2023-03-01T07:41:04;47.85;;;11.70;;
64065;SDS011;50318;54.760;9.408;2023-03-01T07:43:30;39.22;;;11.02;;
64065;SDS011;50318;54.760;9.408;2023-03-01T07:46:00;58.80;;;11.98;;
64065;SDS011;50318;54.760;9.408;2023-03-01T07:48:27;46.53;;;13.38;;
64065;SDS011;50318;54.760;9.408;2023-03-01T07:50:54;37.38;;;12.32;;
64065;SDS011;50318;54.760;9.408;2023-03-01T07:53:20;39.72;;;11.85;;
64065;SDS011;50318;54.760;9.408;2023-03-01T07:55:46;57.13;;;13.15;;
64065;SDS011;50318;54.760;9.408;2023-03-01T07:58:12;64.30;;;12.13;;
64065;SDS011;50318;54.760;9.408;2023-03-01T08:00:39;34.80;;;12.70;;
64065;SDS011;50318;54.760;9.408;2023-03-01T08:03:05;56.20;;;13.23;;
64065;SDS011;50318;54.760;9.408;2023-03-01T08:05:31;41.30;;;13.02;;
64065;SDS011;50318;54.760;9.408;2023-03-01T08:07:57;47.33;;;14.73;;
64065;SDS011;50318;54.760;9.408;2023-03-01T08:10:24;38.55;;;14.50;;
64065;SDS011;50318;54.760;9.408;2023-03-01T08:12:53;42.13;;;14.90;;
64065;SDS011;50318;54.760;9.408;2023-03-01T08:15:19;61.85;;;16.58;;
64065;SDS011;50318;54.760;9.408;2023-03-01T08:17:45;48.67;;;15.95;;
64065;SDS011;50318;54.760;9.408;2023-03-01T08:20:14;36.55;;;16.30;;
64065;SDS011;50318;54.760;9.408;2023-03-01T08:22:41;43.30;;;18.42;;
64065;SDS011;50318;54.760;9.408;2023-03-01T08:25:07;60.28;;;19.73;;
64065;SDS011;50318;54.760;9.408;2023-03-01T08:27:34;71.68;;;24.00;;
64065;SDS011;50318;54.760;9.408;2023-03-01T08:30:00;49.28;;;19.83;;
64065;SDS011;50318;54.760;9.408;2023-03-01T08:32:27;38.15;;;20.05;;
64065;SDS011;50318;54.760;9.408;2023-03-01T08:34:53;54.60;;;21.65;;
64065;SDS011;50318;54.760;9.408;2023-03-01T08:37:19;48.08;;;21.35;;
64065;SDS011;50318;54.760;9.408;2023-03-01T08:39:46;46.80;;;21.05;;
64065;SDS011;50318;54.760;9.408;2023-03-01T08:42:12;54.08;;;22.98;;
64065;SDS011;50318;54.760;9.408;2023-03-01T08:44:38;48.17;;;21.67;;
64065;SDS011;50318;54.760;9.408;2023-03-01T08:47:04;61.50;;;26.17;;
64065;SDS011;50318;54.760;9.408;2023-03-01T08:49:30;53.78;;;23.35;;
64065;SDS011;50318;54.760;9.408;2023-03-01T08:51:57;59.10;;;21.65;;
64065;SDS011;50318;54.760;9.408;2023-03-01T08:54:23;55.33;;;22.25;;
64065;SDS011;50318;54.760;9.408;2023-03-01T08:56:49;58.55;;;20.30;;
64065;SDS011;50318;54.760;9.408;2023-03-01T08:59:16;36.55;;;18.92;;
64065;SDS011;50318;54.760;9.408;2023-03-01T09:01:43;41.40;;;19.25;;
64065;SDS011;50318;54.760;9.408;2023-03-01T09:04:09;45.20;;;20.10;;
64065;SDS011;50318;54.760;9.408;2023-03-01T09:06:37;46.58;;;21.02;;
64065;SDS011;50318;54.760;9.408;2023-03-01T09:09:06;47.92;;;21.58;;
64065;SDS011;50318;54.760;9.408;2023-03-01T09:11:41;53.47;;;20.02;;
64065;SDS011;50318;54.760;9.408;2023-03-01T09:14:08;44.50;;;19.83;;
64065;SDS011;50318;54.760;9.408;2023-03-01T09:16:34;67.65;;;25.85;;
64065;SDS011;50318;54.760;9.408;2023-03-01T09:19:03;41.33;;;21.30;;
64065;SDS011;50318;54.760;9.408;2023-03-01T09:21:32;33.63;;;20.38;;
64065;SDS011;50318;54.760;9.408;2023-03-01T09:23:58;41.90;;;19.63;;
64065;SDS011;50318;54.760;9.408;2023-03-01T09:26:25;37.53;;;17.92;;
64065;SDS011;50318;54.760;9.408;2023-03-01T09:28:53;30.15;;;18.38;;
64065;SDS011;50318;54.760;9.408;2023-03-01T09:31:22;41.00;;;18.85;;
64065;SDS011;50318;54.760;9.408;2023-03-01T09:33:51;36.80;;;18.52;;
64065;SDS011;50318;54.760;9.408;2023-03-01T09:36:20;27.42;;;17.88;;
64065;SDS011;50318;54.760;9.408;2023-03-01T09:38:47;35.42;;;17.77;;
64065;SDS011;50318;54.760;9.408;2023-03-01T09:44:27;37.58;;;18.92;;
64065;SDS011;50318;54.760;9.408;2023-03-01T09:47:12;37.95;;;18.95;;
64065;SDS011;50318;54.760;9.408;2023-03-01T09:50:10;40.22;;;21.55;;
64065;SDS011;50318;54.760;9.408;2023-03-01T09:52:40;26.70;;;18.10;;
64065;SDS011;50318;54.760;9.408;2023-03-01T09:55:33;28.63;;;19.38;;
64065;SDS011;50318;54.760;9.408;2023-03-01T10:01:29;36.30;;;19.85;;
64065;SDS011;50318;54.760;9.408;2023-03-01T10:06:58;31.77;;;20.42;;
64065;SDS011;50318;54.760;9.408;2023-03-01T10:09:36;35.03;;;21.60;;
64065;SDS011;50318;54.760;9.408;2023-03-01T10:12:09;33.90;;;22.08;;
64065;SDS011;50318;54.760;9.408;2023-03-01T10:14:55;37.13;;;23.92;;
64065;SDS011;50318;54.760;9.408;2023-03-01T10:22:55;35.40;;;22.67;;
64065;SDS011;50318;54.760;9.408;2023-03-01T10:25:43;35.85;;;23.10;;
64065;SDS011;50318;54.760;9.408;2023-03-01T10:31:09;30.05;;;21.55;;
64065;SDS011;50318;54.760;9.408;2023-03-01T10:36:07;34.85;;;22.45;;
64065;SDS011;50318;54.760;9.408;2023-03-01T10:42:31;31.95;;;22.35;;
64065;SDS011;50318;54.760;9.408;2023-03-01T10:45:17;31.67;;;21.25;;
64065;SDS011;50318;54.760;9.408;2023-03-01T10:48:03;28.35;;;20.90;;
64065;SDS011;50318;54.760;9.408;2023-03-01T10:50:43;30.95;;;21.15;;
64065;SDS011;50318;54.760;9.408;2023-03-01T10:53:22;31.88;;;21.73;;
64065;SDS011;50318;54.760;9.408;2023-03-01T10:59:39;29.52;;;20.95;;
64065;SDS011;50318;54.760;9.408;2023-03-01T11:04:37;29.33;;;22.33;;
64065;SDS011;50318;54.760;9.408;2023-03-01T11:07:04;29.70;;;20.40;;
64065;SDS011;50318;54.760;9.408;2023-03-01T11:09:31;27.02;;;20.65;;
64065;SDS011;50318;54.760;9.408;2023-03-01T11:11:59;26.85;;;19.48;;
64065;SDS011;50318;54.760;9.408;2023-03-01T11:14:31;24.35;;;18.20;;
64065;SDS011;50318;54.760;9.408;2023-03-01T11:17:04;25.55;;;19.25;;
64065;SDS011;50318;54.760;9.408;2023-03-01T11:19:37;25.08;;;18.48;;
64065;SDS011;50318;54.760;9.408;2023-03-01T11:22:13;25.63;;;19.08;;
64065;SDS011;50318;54.760;9.408;2023-03-01T11:24:44;23.02;;;17.92;;
64065;SDS011;50318;54.760;9.408;2023-03-01T11:27:23;23.73;;;17.48;;
64065;SDS011;50318;54.760;9.408;2023-03-01T11:30:12;23.60;;;17.77;;
64065;SDS011;50318;54.760;9.408;2023-03-01T11:35:27;24.70;;;18.20;;
64065;SDS011;50318;54.760;9.408;2023-03-01T11:40:34;20.25;;;15.45;;
64065;SDS011;50318;54.760;9.408;2023-03-01T11:43:30;18.48;;;14.77;;
64065;SDS011;50318;54.760;9.408;2023-03-01T12:20:44;18.98;;;15.00;;
64065;SDS011;50318;54.760;9.408;2023-03-01T12:23:32;20.90;;;15.80;;
64065;SDS011;50318;54.760;9.408;2023-03-01T12:26:30;19.95;;;15.40;;
64065;SDS011;50318;54.760;9.408;2023-03-01T12:32:34;21.95;;;17.00;;
64065;SDS011;50318;54.760;9.408;2023-03-01T12:43:03;24.98;;;16.23;;
64065;SDS011;50318;54.760;9.408;2023-03-01T12:51:10;24.00;;;17.05;;
64065;SDS011;50318;54.760;9.408;2023-03-01T12:53:47;24.73;;;15.75;;
64065;SDS011;50318;54.760;9.408;2023-03-01T12:56:19;21.70;;;15.38;;
64065;SDS011;50318;54.760;9.408;2023-03-01T12:59:09;22.70;;;15.85;;
64065;SDS011;50318;54.760;9.408;2023-03-01T13:01:43;21.15;;;14.73;;
64065;SDS011;50318;54.760;9.408;2023-03-01T13:10:19;23.83;;;16.55;;
64065;SDS011;50318;54.760;9.408;2023-03-01T13:20:29;22.38;;;15.25;;
64065;SDS011;50318;54.760;9.408;2023-03-01T13:23:03;24.60;;;16.13;;
64065;SDS011;50318;54.760;9.408;2023-03-01T13:26:00;25.17;;;16.23;;
64065;SDS011;50318;54.760;9.408;2023-03-01T13:31:04;24.17;;;16.67;;
64065;SDS011;50318;54.760;9.408;2023-03-01T13:35:58;25.08;;;16.50;;
64065;SDS011;50318;54.760;9.408;2023-03-01T13:47:16;23.58;;;15.75;;
64065;SDS011;50318;54.760;9.408;2023-03-01T13:52:43;25.98;;;15.98;;
64065;SDS011;50318;54.760;9.408;2023-03-01T13:57:42;23.20;;;15.07;;
64065;SDS011;50318;54.760;9.408;2023-03-01T14:00:25;23.17;;;15.85;;
64065;SDS011;50318;54.760;9.408;2023-03-01T14:05:29;23.77;;;16.05;;
64065;SDS011;50318;54.760;9.408;2023-03-01T14:07:59;24.45;;;16.33;;
64065;SDS011;50318;54.760;9.408;2023-03-01T14:10:27;22.27;;;16.13;;
64065;SDS011;50318;54.760;9.408;2023-03-01T14:13:22;22.85;;;16.20;;
64065;SDS011;50318;54.760;9.408;2023-03-01T14:21:41;27.58;;;17.38;;
64065;SDS011;50318;54.760;9.408;2023-03-01T14:24:14;24.67;;;16.65;;
64065;SDS011;50318;54.760;9.408;2023-03-01T14:26:43;27.63;;;17.75;;
64065;SDS011;50318;54.760;9.408;2023-03-01T14:29:27;26.80;;;18.60;;
64065;SDS011;50318;54.760;9.408;2023-03-01T14:32:10;25.65;;;18.17;;
64065;SDS011;50318;54.760;9.408;2023-03-01T14:34:46;28.30;;;18.13;;
64065;SDS011;50318;54.760;9.408;2023-03-01T14:39:47;25.00;;;17.35;;
64065;SDS011;50318;54.760;9.408;2023-03-01T14:42:14;31.42;;;19.92;;
64065;SDS011;50318;54.760;9.408;2023-03-01T14:44:48;32.20;;;22.30;;
64065;SDS011;50318;54.760;9.408;2023-03-01T14:50:01;42.22;;;26.58;;
64065;SDS011;50318;54.760;9.408;2023-03-01T14:52:40;42.85;;;27.70;;
64065;SDS011;50318;54.760;9.408;2023-03-01T14:55:29;46.40;;;30.27;;
64065;SDS011;50318;54.760;9.408;2023-03-01T14:57:59;58.72;;;35.38;;
64065;SDS011;50318;54.760;9.408;2023-03-01T15:00:26;51.83;;;34.75;;
64065;SDS011;50318;54.760;9.408;2023-03-01T15:03:06;47.60;;;31.73;;
64065;SDS011;50318;54.760;9.408;2023-03-01T15:05:43;42.03;;;29.52;;
64065;SDS011;50318;54.760;9.408;2023-03-01T15:08:16;65.15;;;45.65;;
64065;SDS011;50318;54.760;9.408;2023-03-01T15:10:55;56.35;;;36.78;;
64065;SDS011;50318;54.760;9.408;2023-03-01T15:13:29;48.15;;;34.35;;
64065;SDS011;50318;54.760;9.408;2023-03-01T15:16:04;37.20;;;26.08;;
64065;SDS011;50318;54.760;9.408;2023-03-01T15:18:34;57.72;;;36.22;;
64065;SDS011;50318;54.760;9.408;2023-03-01T15:21:08;80.93;;;48.58;;
64065;SDS011;50318;54.760;9.408;2023-03-01T15:23:41;61.13;;;39.72;;
64065;SDS011;50318;54.760;9.408;2023-03-01T15:26:23;51.70;;;32.42;;
64065;SDS011;50318;54.760;9.408;2023-03-01T15:28:58;59.20;;;36.75;;
64065;SDS011;50318;54.760;9.408;2023-03-01T15:31:29;65.35;;;42.97;;
64065;SDS011;50318;54.760;9.408;2023-03-01T15:36:56;46.83;;;30.70;;
64065;SDS011;50318;54.760;9.408;2023-03-01T15:39:40;44.55;;;29.48;;
64065;SDS011;50318;54.760;9.408;2023-03-01T15:42:12;78.07;;;52.58;;
64065;SDS011;50318;54.760;9.408;2023-03-01T15:45:19;67.75;;;45.13;;
64065;SDS011;50318;54.760;9.408;2023-03-01T15:47:49;59.17;;;39.83;;
64065;SDS011;50318;54.760;9.408;2023-03-01T15:50:19;48.40;;;34.13;;
64065;SDS011;50318;54.760;9.408;2023-03-01T15:52:50;72.20;;;46.60;;
64065;SDS011;50318;54.760;9.408;2023-03-01T15:55:24;77.43;;;50.83;;
64065;SDS011;50318;54.760;9.408;2023-03-01T15:57:58;83.18;;;52.08;;
64065;SDS011;50318;54.760;9.408;2023-03-01T16:00:39;77.70;;;48.13;;
64065;SDS011;50318;54.760;9.408;2023-03-01T16:03:05;80.05;;;50.55;;
64065;SDS011;50318;54.760;9.408;2023-03-01T16:05:38;66.07;;;43.42;;
64065;SDS011;50318;54.760;9.408;2023-03-01T16:08:05;73.10;;;46.88;;
64065;SDS011;50318;54.760;9.408;2023-03-01T16:10:33;59.38;;;40.38;;
64065;SDS011;50318;54.760;9.408;2023-03-01T16:13:00;68.85;;;44.35;;
64065;SDS011;50318;54.760;9.408;2023-03-01T16:15:28;69.20;;;44.70;;
64065;SDS011;50318;54.760;9.408;2023-03-01T16:17:55;82.80;;;51.13;;
64065;SDS011;50318;54.760;9.408;2023-03-01T16:20:22;68.70;;;43.97;;
64065;SDS011;50318;54.760;9.408;2023-03-01T16:22:48;68.82;;;43.67;;
64065;SDS011;50318;54.760;9.408;2023-03-01T16:25:15;67.75;;;43.17;;
64065;SDS011;50318;54.760;9.408;2023-03-01T16:27:43;66.70;;;44.10;;
64065;SDS011;50318;54.760;9.408;2023-03-01T16:30:11;69.43;;;45.20;;
64065;SDS011;50318;54.760;9.408;2023-03-01T16:32:39;58.67;;;38.33;;
64065;SDS011;50318;54.760;9.408;2023-03-01T16:35:07;70.65;;;44.22;;
64065;SDS011;50318;54.760;9.408;2023-03-01T16:37:35;61.67;;;38.17;;
64065;SDS011;50318;54.760;9.408;2023-03-01T16:40:05;65.05;;;38.53;;
64065;SDS011;50318;54.760;9.408;2023-03-01T16:42:41;65.00;;;38.80;;
64065;SDS011;50318;54.760;9.408;2023-03-01T16:45:10;57.17;;;35.55;;
64065;SDS011;50318;54.760;9.408;2023-03-01T16:47:36;56.85;;;33.72;;
64065;SDS011;50318;54.760;9.408;2023-03-01T16:50:03;54.47;;;33.53;;
64065;SDS011;50318;54.760;9.408;2023-03-01T16:52:30;54.92;;;34.97;;
64065;SDS011;50318;54.760;9.408;2023-03-01T16:54:57;60.22;;;35.75;;
64065;SDS011;50318;54.760;9.408;2023-03-01T16:57:23;64.70;;;38.42;;
64065;SDS011;50318;54.760;9.408;2023-03-01T16:59:52;81.63;;;45.83;;
64065;SDS011;50318;54.760;9.408;2023-03-01T17:02:20;72.55;;;41.92;;